Time;durP1;ratioP1;P1;durP2;ratioP2;P2;SDS_P1;SDS_P2;PMS_P1;PMS_P2;Temp;Humidity;BMP_temperature;BMP_pressure;BME280_temperature;BME280_humidity;BME280_pressure;Samples;Min_cycle;Max_cycle;Signal;HPM_P1;HPM_P2
2023/03/10 00:00:24;;;;;;;6.15;1.77;;;;;;;;;;5024601;28;20025;-74
2023/03/10 00:02:50;;;;;;;7.93;2.03;;;;;;;;;;5029747;28;20080;-75
2023/03/10 00:05:17;;;;;;;11.45;3.00;;;;;;;;;;5026392;28;20048;-75
2023/03/10 00:07:44;;;;;;;10.80;2.80;;;;;;;;;;5032764;28;20100;-75
2023/03/10 00:10:11;;;;;;;11.80;4.05;;;;;;;;;;5028720;28;20502;-75
2023/03/10 00:12:37;;;;;;;15.80;4.10;;;;;;;;;;5037821;28;20100;-75
2023/03/10 00:15:03;;;;;;;15.60;5.22;;;;;;;;;;5036052;28;20041;-75
2023/03/10 00:17:30;;;;;;;13.35;3.75;;;;;;;;;;5029804;28;20112;-75
2023/03/10 00:19:56;;;;;;;8.25;2.45;;;;;;;;;;5022927;28;20037;-75
2023/03/10 00:22:22;;;;;;;22.58;8.27;;;;;;;;;;5031214;28;20514;-75
2023/03/10 00:24:48;;;;;;;13.25;4.78;;;;;;;;;;5027992;28;20037;-74
2023/03/10 00:27:14;;;;;;;5.47;1.83;;;;;;;;;;5029861;28;20099;-75
2023/03/10 00:29:40;;;;;;;9.35;1.42;;;;;;;;;;5029673;28;20042;-74
2023/03/10 00:32:06;;;;;;;7.68;1.55;;;;;;;;;;5029434;28;20451;-75
2023/03/10 00:34:32;;;;;;;5.95;1.30;;;;;;;;;;5027892;28;20059;-75
2023/03/10 00:36:58;;;;;;;7.72;2.75;;;;;;;;;;5025441;28;20649;-75
2023/03/10 00:39:24;;;;;;;10.32;3.70;;;;;;;;;;5021173;28;20103;-75
2023/03/10 00:41:50;;;;;;;2.97;0.65;;;;;;;;;;5025838;28;20073;-75
2023/03/10 00:44:16;;;;;;;2.25;0.88;;;;;;;;;;5023859;28;20034;-75
2023/03/10 00:46:42;;;;;;;2.45;0.60;;;;;;;;;;5037030;28;20033;-74
2023/03/10 00:49:08;;;;;;;2.40;0.60;;;;;;;;;;5018431;28;20029;-75
2023/03/10 00:51:34;;;;;;;2.22;0.47;;;;;;;;;;5022009;28;20053;-75
2023/03/10 00:54:03;;;;;;;1.15;0.30;;;;;;;;;;5024387;28;20124;-75
2023/03/10 00:56:29;;;;;;;1.90;0.10;;;;;;;;;;5028968;28;20037;-75
2023/03/10 00:58:56;;;;;;;3.25;0.30;;;;;;;;;;5016801;28;20077;-74
2023/03/10 01:01:33;;;;;;;1.75;0.43;;;;;;;;;;5024115;28;20092;-75
2023/03/10 01:04:00;;;;;;;0.73;0.00;;;;;;;;;;5024968;28;20069;-74
2023/03/10 01:06:27;;;;;;;0.17;0.00;;;;;;;;;;5021977;28;20036;-75
2023/03/10 01:08:53;;;;;;;1.80;0.10;;;;;;;;;;5026794;28;20128;-75
2023/03/10 01:11:21;;;;;;;0.73;0.20;;;;;;;;;;5016989;28;20034;-75
2023/03/10 01:13:47;;;;;;;1.17;0.10;;;;;;;;;;5025555;28;20040;-75
2023/03/10 01:16:13;;;;;;;1.02;0.20;;;;;;;;;;5029105;28;20029;-75
2023/03/10 01:18:39;;;;;;;2.17;0.20;;;;;;;;;;5029538;28;20041;-75
2023/03/10 01:21:06;;;;;;;2.95;0.20;;;;;;;;;;5019186;28;20037;-74
2023/03/10 01:23:32;;;;;;;1.05;0.10;;;;;;;;;;5009102;28;20149;-75
2023/03/10 01:25:58;;;;;;;1.70;0.20;;;;;;;;;;4994778;28;20109;-75
2023/03/10 01:28:24;;;;;;;2.53;0.30;;;;;;;;;;5001329;28;20030;-75
2023/03/10 01:30:50;;;;;;;1.60;0.15;;;;;;;;;;4996416;28;20034;-75
2023/03/10 01:33:17;;;;;;;0.93;0.08;;;;;;;;;;5002465;28;20022;-74
2023/03/10 01:35:43;;;;;;;4.10;0.88;;;;;;;;;;5002215;28;20056;-75
2023/03/10 01:38:09;;;;;;;3.75;0.65;;;;;;;;;;4998895;28;20034;-74
2023/03/10 01:40:36;;;;;;;0.40;0.10;;;;;;;;;;5002645;28;20041;-75
2023/03/10 01:43:14;;;;;;;0.95;0.10;;;;;;;;;;4999643;28;20045;-74
2023/03/10 01:45:40;;;;;;;1.30;0.13;;;;;;;;;;5007079;28;20022;-75
2023/03/10 01:48:06;;;;;;;0.60;0.15;;;;;;;;;;4997948;28;20041;-75
2023/03/10 01:50:32;;;;;;;0.60;0.10;;;;;;;;;;4996094;28;20056;-74
2023/03/10 01:52:58;;;;;;;1.02;0.28;;;;;;;;;;5012034;28;20034;-74
2023/03/10 01:55:26;;;;;;;0.47;0.08;;;;;;;;;;5007861;28;20037;-75
2023/03/10 01:57:53;;;;;;;0.93;0.10;;;;;;;;;;5009955;28;20057;-74
2023/03/10 02:00:20;;;;;;;1.50;0.20;;;;;;;;;;5009702;28;20103;-74
2023/03/10 02:02:52;;;;;;;4.13;0.30;;;;;;;;;;5008955;28;20396;-74
2023/03/10 02:05:18;;;;;;;1.38;0.30;;;;;;;;;;5012283;28;20034;-74
2023/03/10 02:07:44;;;;;;;1.52;0.30;;;;;;;;;;5011112;28;20026;-75
2023/03/10 02:10:11;;;;;;;0.65;0.10;;;;;;;;;;5011195;28;20030;-74
2023/03/10 02:12:37;;;;;;;0.77;0.30;;;;;;;;;;5007443;28;20018;-74
2023/03/10 02:15:04;;;;;;;1.63;0.40;;;;;;;;;;5007334;28;20206;-74
2023/03/10 02:17:30;;;;;;;2.20;0.50;;;;;;;;;;5016263;28;23071;-75
2023/03/10 02:20:05;;;;;;;4.35;0.70;;;;;;;;;;5011878;28;20113;-75
2023/03/10 02:22:31;;;;;;;1.02;0.30;;;;;;;;;;5021026;28;20052;-75
2023/03/10 02:25:09;;;;;;;2.85;1.08;;;;;;;;;;5038798;28;20069;-74
2023/03/10 02:27:37;;;;;;;1.05;0.50;;;;;;;;;;5031396;28;20055;-75
2023/03/10 02:30:03;;;;;;;1.67;0.43;;;;;;;;;;5024404;28;20045;-75
2023/03/10 02:32:32;;;;;;;0.90;0.30;;;;;;;;;;5016869;28;20029;-74
2023/03/10 02:34:58;;;;;;;0.52;0.10;;;;;;;;;;5034979;28;20042;-75
2023/03/10 02:37:26;;;;;;;0.60;0.22;;;;;;;;;;5023957;28;20061;-74
2023/03/10 02:39:52;;;;;;;5.20;2.05;;;;;;;;;;5030905;28;20116;-74
2023/03/10 02:42:19;;;;;;;1.55;0.30;;;;;;;;;;5033692;28;20049;-75
2023/03/10 02:44:46;;;;;;;1.42;0.25;;;;;;;;;;5027436;28;20112;-75
2023/03/10 02:47:12;;;;;;;1.15;0.38;;;;;;;;;;5031958;28;20557;-74
2023/03/10 02:49:39;;;;;;;1.77;0.45;;;;;;;;;;5031638;28;20041;-75
2023/03/10 02:52:07;;;;;;;1.83;0.50;;;;;;;;;;5031036;28;20056;-74
2023/03/10 02:54:33;;;;;;;1.17;0.38;;;;;;;;;;5030525;28;20059;-75
2023/03/10 02:56:59;;;;;;;1.75;0.30;;;;;;;;;;5015406;28;20034;-74
2023/03/10 02:59:25;;;;;;;2.67;0.30;;;;;;;;;;5019770;28;20403;-75
2023/03/10 03:01:51;;;;;;;1.98;0.50;;;;;;;;;;5027787;28;20056;-74
2023/03/10 03:04:17;;;;;;;1.35;0.40;;;;;;;;;;5030100;28;20045;-75
2023/03/10 03:06:43;;;;;;;2.83;0.63;;;;;;;;;;5030778;28;20053;-75
2023/03/10 03:09:09;;;;;;;4.50;0.50;;;;;;;;;;5022899;28;20049;-75
2023/03/10 03:11:35;;;;;;;1.60;0.50;;;;;;;;;;5042859;28;20068;-75
2023/03/10 03:14:01;;;;;;;1.67;0.30;;;;;;;;;;5028541;28;20061;-75
2023/03/10 03:16:27;;;;;;;1.17;0.40;;;;;;;;;;5029908;28;20064;-75
2023/03/10 03:18:53;;;;;;;1.35;0.50;;;;;;;;;;5015354;28;20127;-75
2023/03/10 03:21:20;;;;;;;2.15;0.40;;;;;;;;;;5023779;28;20053;-75
2023/03/10 03:23:46;;;;;;;1.63;0.40;;;;;;;;;;5013495;28;20038;-75
2023/03/10 03:26:19;;;;;;;1.15;0.30;;;;;;;;;;5002414;28;20064;-75
2023/03/10 03:28:45;;;;;;;1.33;0.40;;;;;;;;;;5011907;28;20766;-75
2023/03/10 03:31:15;;;;;;;0.77;0.30;;;;;;;;;;5002421;28;20033;-75
2023/03/10 03:33:41;;;;;;;1.60;0.40;;;;;;;;;;5010857;28;20061;-75
2023/03/10 03:36:08;;;;;;;3.05;0.35;;;;;;;;;;5009357;28;20065;-75
2023/03/10 03:38:34;;;;;;;1.30;0.40;;;;;;;;;;5013610;28;20037;-75
2023/03/10 03:41:00;;;;;;;2.45;0.45;;;;;;;;;;4988840;28;20440;-75
2023/03/10 03:43:28;;;;;;;1.48;0.40;;;;;;;;;;5005149;28;20049;-75
2023/03/10 03:45:54;;;;;;;0.90;0.20;;;;;;;;;;5010165;28;20022;-75
2023/03/10 03:48:20;;;;;;;1.92;0.60;;;;;;;;;;5003571;28;20034;-75
2023/03/10 03:50:50;;;;;;;1.48;0.40;;;;;;;;;;5009469;28;20097;-75
2023/03/10 03:53:16;;;;;;;0.95;0.35;;;;;;;;;;4992616;28;20156;-75
2023/03/10 03:55:42;;;;;;;3.47;0.30;;;;;;;;;;5004529;28;20450;-74
2023/03/10 03:58:08;;;;;;;2.05;0.30;;;;;;;;;;4993046;28;20042;-75
2023/03/10 04:00:34;;;;;;;2.40;0.40;;;;;;;;;;4999656;28;20033;-74
2023/03/10 04:03:00;;;;;;;1.13;0.28;;;;;;;;;;5021067;28;21053;-75
2023/03/10 04:05:26;;;;;;;2.92;0.85;;;;;;;;;;5001205;28;20113;-74
2023/03/10 04:07:52;;;;;;;3.28;0.80;;;;;;;;;;5017303;28;20767;-75
2023/03/10 04:10:22;;;;;;;3.25;1.02;;;;;;;;;;5005747;28;20042;-75
2023/03/10 04:12:48;;;;;;;2.50;0.30;;;;;;;;;;5008805;28;20539;-74
2023/03/10 04:15:14;;;;;;;4.05;0.43;;;;;;;;;;5006171;28;20036;-75
2023/03/10 04:17:41;;;;;;;3.45;0.60;;;;;;;;;;5006749;28;20981;-75
2023/03/10 04:20:07;;;;;;;3.25;0.47;;;;;;;;;;4998887;28;20065;-75
2023/03/10 04:22:34;;;;;;;1.67;0.30;;;;;;;;;;5013245;28;20050;-75
2023/03/10 04:25:00;;;;;;;2.75;0.60;;;;;;;;;;5024286;28;20495;-75
2023/03/10 04:27:26;;;;;;;2.20;0.40;;;;;;;;;;5028802;28;20061;-74
2023/03/10 04:29:52;;;;;;;2.72;0.50;;;;;;;;;;5036178;28;20026;-75
2023/03/10 04:32:18;;;;;;;1.90;0.40;;;;;;;;;;5024642;28;20446;-75
2023/03/10 04:34:44;;;;;;;1.90;0.47;;;;;;;;;;5032015;28;20026;-75
2023/03/10 04:37:10;;;;;;;1.50;0.40;;;;;;;;;;5028451;28;20459;-74
2023/03/10 04:39:36;;;;;;;4.07;0.30;;;;;;;;;;5028738;28;20068;-74
2023/03/10 04:42:02;;;;;;;3.60;0.30;;;;;;;;;;5035396;28;20071;-74
2023/03/10 04:44:28;;;;;;;7.20;0.50;;;;;;;;;;5018182;28;20034;-75
2023/03/10 04:46:54;;;;;;;1.35;0.40;;;;;;;;;;5027165;28;20029;-75
2023/03/10 04:49:20;;;;;;;4.22;0.50;;;;;;;;;;5019345;28;20068;-75
2023/03/10 04:51:46;;;;;;;3.20;0.63;;;;;;;;;;5024278;28;20630;-75
2023/03/10 04:54:12;;;;;;;5.03;0.55;;;;;;;;;;5023039;28;20073;-75
2023/03/10 04:56:38;;;;;;;7.32;1.17;;;;;;;;;;5033482;28;20055;-74
2023/03/10 04:59:04;;;;;;;1.75;0.30;;;;;;;;;;5027827;28;20617;-75
2023/03/10 05:01:31;;;;;;;2.28;0.60;;;;;;;;;;5014503;28;20072;-75
2023/03/10 05:04:01;;;;;;;2.25;0.60;;;;;;;;;;5024126;28;20838;-75
2023/03/10 05:06:28;;;;;;;2.05;0.40;;;;;;;;;;5006764;28;20029;-75
2023/03/10 05:08:54;;;;;;;3.70;0.38;;;;;;;;;;5009753;28;20041;-75
2023/03/10 05:11:20;;;;;;;3.05;0.35;;;;;;;;;;5034257;28;20082;-74
2023/03/10 05:13:46;;;;;;;4.82;0.65;;;;;;;;;;5022467;28;20033;-75
2023/03/10 05:16:17;;;;;;;2.92;0.73;;;;;;;;;;5002860;28;20116;-75
2023/03/10 05:18:43;;;;;;;3.47;0.60;;;;;;;;;;5020507;28;20028;-74
2023/03/10 05:21:09;;;;;;;4.20;0.80;;;;;;;;;;5035919;28;20046;-74
2023/03/10 05:23:35;;;;;;;3.53;0.75;;;;;;;;;;5029436;28;20048;-75
2023/03/10 05:26:03;;;;;;;3.60;0.70;;;;;;;;;;5034270;28;20572;-75
2023/03/10 05:28:29;;;;;;;4.55;0.68;;;;;;;;;;5031133;28;20087;-75
2023/03/10 05:30:55;;;;;;;2.92;0.60;;;;;;;;;;5012280;28;20037;-74
2023/03/10 05:33:21;;;;;;;2.25;0.80;;;;;;;;;;5024757;28;20037;-75
2023/03/10 05:35:47;;;;;;;4.07;0.50;;;;;;;;;;5033894;28;20035;-74
2023/03/10 05:38:13;;;;;;;1.48;0.30;;;;;;;;;;5029170;28;20038;-74
2023/03/10 05:40:43;;;;;;;4.10;0.70;;;;;;;;;;5031416;28;20030;-75
2023/03/10 05:43:09;;;;;;;1.30;0.38;;;;;;;;;;5026641;28;20041;-75
2023/03/10 05:45:35;;;;;;;1.60;0.50;;;;;;;;;;5032686;28;20032;-74
2023/03/10 05:48:01;;;;;;;6.65;0.93;;;;;;;;;;5039124;28;20142;-75
2023/03/10 05:50:28;;;;;;;3.63;0.80;;;;;;;;;;5020359;28;20029;-75
2023/03/10 05:52:54;;;;;;;6.30;1.13;;;;;;;;;;5022264;28;20036;-75
2023/03/10 05:55:20;;;;;;;4.22;0.80;;;;;;;;;;5034696;28;20030;-75
2023/03/10 05:57:47;;;;;;;6.05;0.70;;;;;;;;;;5030335;28;20017;-74
2023/03/10 06:00:13;;;;;;;6.60;1.35;;;;;;;;;;5033194;28;20049;-75
2023/03/10 06:02:40;;;;;;;8.23;1.40;;;;;;;;;;5049170;28;20025;-75
2023/03/10 06:05:07;;;;;;;3.75;0.80;;;;;;;;;;5020798;28;20079;-74
2023/03/10 06:07:33;;;;;;;8.98;1.40;;;;;;;;;;5034968;28;20036;-75
2023/03/10 06:09:59;;;;;;;3.58;0.93;;;;;;;;;;5035534;28;20038;-74
2023/03/10 06:12:25;;;;;;;5.55;1.30;;;;;;;;;;5025528;28;20029;-74
2023/03/10 06:14:51;;;;;;;4.15;0.93;;;;;;;;;;5030010;28;20096;-74
2023/03/10 06:17:17;;;;;;;5.70;1.90;;;;;;;;;;5020488;28;20037;-74
2023/03/10 06:19:43;;;;;;;8.38;1.52;;;;;;;;;;5028326;28;20096;-75
2023/03/10 06:22:09;;;;;;;6.85;1.52;;;;;;;;;;5029101;28;20081;-75
2023/03/10 06:24:35;;;;;;;5.82;1.52;;;;;;;;;;5030033;28;20041;-75
2023/03/10 06:27:01;;;;;;;7.30;1.70;;;;;;;;;;5027334;28;20033;-75
2023/03/10 06:29:27;;;;;;;5.82;1.73;;;;;;;;;;5028795;28;20106;-75
2023/03/10 06:31:53;;;;;;;4.90;1.35;;;;;;;;;;5030883;28;20048;-75
2023/03/10 06:34:19;;;;;;;6.88;1.45;;;;;;;;;;5025217;28;20160;-77
2023/03/10 06:36:45;;;;;;;4.45;1.45;;;;;;;;;;5027273;28;20033;-76
2023/03/10 06:39:12;;;;;;;4.88;1.20;;;;;;;;;;5029688;28;20153;-74
2023/03/10 06:41:38;;;;;;;4.20;0.90;;;;;;;;;;5027310;28;20053;-74
2023/03/10 06:44:04;;;;;;;6.53;1.40;;;;;;;;;;5026672;28;20120;-77
2023/03/10 06:46:30;;;;;;;5.78;1.40;;;;;;;;;;5027161;28;20057;-75
2023/03/10 06:48:56;;;;;;;5.55;1.70;;;;;;;;;;5025850;28;20029;-76
2023/03/10 06:51:22;;;;;;;9.25;1.80;;;;;;;;;;5019548;28;20349;-76
2023/03/10 06:53:48;;;;;;;10.63;2.83;;;;;;;;;;5031445;28;20812;-76
2023/03/10 06:56:16;;;;;;;16.75;3.88;;;;;;;;;;5035011;28;20109;-76
2023/03/10 06:58:42;;;;;;;7.55;2.08;;;;;;;;;;5028431;28;20028;-77
2023/03/10 07:01:18;;;;;;;11.52;2.15;;;;;;;;;;5024047;28;20037;-76
2023/03/10 07:03:43;;;;;;;10.63;2.35;;;;;;;;;;5034799;28;20588;-76
2023/03/10 07:06:09;;;;;;;11.88;2.42;;;;;;;;;;5031530;28;20038;-76
2023/03/10 07:08:35;;;;;;;6.63;0.80;;;;;;;;;;5028826;28;20079;-76
2023/03/10 07:11:01;;;;;;;6.75;1.00;;;;;;;;;;5033370;28;20028;-76
2023/03/10 07:13:27;;;;;;;7.97;1.95;;;;;;;;;;5028565;28;20033;-76
2023/03/10 07:15:53;;;;;;;10.15;2.00;;;;;;;;;;5027005;28;20069;-76
2023/03/10 07:18:19;;;;;;;8.60;2.60;;;;;;;;;;5025028;28;20033;-76
2023/03/10 07:20:51;;;;;;;4.22;0.65;;;;;;;;;;5028780;28;20044;-76
2023/03/10 07:23:17;;;;;;;7.22;1.17;;;;;;;;;;5026209;28;20088;-76
2023/03/10 07:25:43;;;;;;;14.77;4.32;;;;;;;;;;5024248;28;20026;-76
2023/03/10 07:28:09;;;;;;;6.50;1.60;;;;;;;;;;5030841;28;20037;-76
2023/03/10 07:30:37;;;;;;;4.53;0.63;;;;;;;;;;5036594;28;20443;-76
2023/03/10 07:33:03;;;;;;;3.40;0.40;;;;;;;;;;5033311;28;20032;-76
2023/03/10 07:35:29;;;;;;;1.75;0.30;;;;;;;;;;5026448;28;20046;-76
2023/03/10 07:37:55;;;;;;;4.25;0.60;;;;;;;;;;5025045;28;20033;-76
2023/03/10 07:40:23;;;;;;;2.90;0.60;;;;;;;;;;5034124;28;20378;-76
2023/03/10 07:42:49;;;;;;;2.60;0.98;;;;;;;;;;5030970;28;20037;-76
2023/03/10 07:45:16;;;;;;;7.30;1.42;;;;;;;;;;5027980;28;20033;-76
2023/03/10 07:47:42;;;;;;;3.22;1.00;;;;;;;;;;5024990;28;20036;-76
2023/03/10 07:50:08;;;;;;;3.80;0.40;;;;;;;;;;5026119;28;20038;-76
2023/03/10 07:52:34;;;;;;;1.15;0.30;;;;;;;;;;5030218;28;20067;-76
2023/03/10 07:55:00;;;;;;;3.47;0.30;;;;;;;;;;5026973;28;20646;-76
2023/03/10 07:57:27;;;;;;;1.55;0.30;;;;;;;;;;5026973;28;20032;-76
2023/03/10 07:59:53;;;;;;;2.92;0.50;;;;;;;;;;5034360;28;20040;-76
2023/03/10 08:02:19;;;;;;;5.40;0.73;;;;;;;;;;5031597;28;20041;-75
2023/03/10 08:04:45;;;;;;;4.90;1.90;;;;;;;;;;5029729;28;20087;-76
2023/03/10 08:07:11;;;;;;;5.40;1.88;;;;;;;;;;5017164;28;20029;-76
2023/03/10 08:09:37;;;;;;;6.40;1.63;;;;;;;;;;5027654;28;20061;-76
2023/03/10 08:12:03;;;;;;;2.17;0.80;;;;;;;;;;5027620;28;20075;-76
2023/03/10 08:14:30;;;;;;;3.72;0.70;;;;;;;;;;5029008;28;20056;-76
2023/03/10 08:16:56;;;;;;;3.50;0.40;;;;;;;;;;5034461;28;20043;-76
2023/03/10 08:19:23;;;;;;;2.67;0.50;;;;;;;;;;5023282;28;20061;-76
2023/03/10 08:21:49;;;;;;;1.80;0.40;;;;;;;;;;5026310;28;20057;-76
2023/03/10 08:24:15;;;;;;;2.25;0.22;;;;;;;;;;5024286;28;20045;-75
2023/03/10 08:26:41;;;;;;;1.00;0.20;;;;;;;;;;5029310;28;20037;-76
2023/03/10 08:29:07;;;;;;;1.40;0.40;;;;;;;;;;5025471;28;20040;-76
2023/03/10 08:31:33;;;;;;;5.50;0.40;;;;;;;;;;5033637;28;20056;-76
2023/03/10 08:33:59;;;;;;;2.03;0.45;;;;;;;;;;5028575;28;20045;-76
2023/03/10 08:36:26;;;;;;;1.90;0.30;;;;;;;;;;5026403;28;20579;-76
2023/03/10 08:38:53;;;;;;;3.25;1.30;;;;;;;;;;5023637;28;20048;-76
2023/03/10 08:41:33;;;;;;;4.10;0.70;;;;;;;;;;5025994;28;20072;-76
2023/03/10 08:43:59;;;;;;;3.88;0.80;;;;;;;;;;5027973;28;20096;-76
2023/03/10 08:46:27;;;;;;;5.85;2.42;;;;;;;;;;5026743;28;20037;-76
2023/03/10 08:48:53;;;;;;;3.03;1.10;;;;;;;;;;5026871;28;20029;-76
2023/03/10 08:51:19;;;;;;;3.22;1.23;;;;;;;;;;5033467;28;20038;-76
2023/03/10 08:53:46;;;;;;;3.03;1.00;;;;;;;;;;5027307;28;20199;-76
2023/03/10 08:56:12;;;;;;;3.70;1.50;;;;;;;;;;5028783;28;20033;-76
2023/03/10 08:58:39;;;;;;;2.00;0.75;;;;;;;;;;5027042;28;20312;-76
2023/03/10 09:01:05;;;;;;;1.67;0.30;;;;;;;;;;5030466;28;20171;-76
2023/03/10 09:03:31;;;;;;;4.00;0.95;;;;;;;;;;5022855;28;20542;-76
2023/03/10 09:05:57;;;;;;;9.10;3.60;;;;;;;;;;5020149;28;20036;-76
2023/03/10 09:08:23;;;;;;;7.18;3.40;;;;;;;;;;5030623;28;20037;-76
2023/03/10 09:10:49;;;;;;;9.63;4.95;;;;;;;;;;5026538;28;20033;-76
2023/03/10 09:13:15;;;;;;;4.13;2.00;;;;;;;;;;5022501;28;20045;-76
2023/03/10 09:15:41;;;;;;;3.60;1.13;;;;;;;;;;5030085;28;20021;-76
2023/03/10 09:18:11;;;;;;;5.45;2.45;;;;;;;;;;5031756;28;20517;-76
2023/03/10 09:20:38;;;;;;;2.10;0.60;;;;;;;;;;5028834;28;20021;-76
2023/03/10 09:23:04;;;;;;;0.90;0.30;;;;;;;;;;5023646;28;20128;-76
2023/03/10 09:25:30;;;;;;;2.88;0.63;;;;;;;;;;5026728;28;20429;-76
2023/03/10 09:27:57;;;;;;;4.60;1.48;;;;;;;;;;5027553;28;20511;-76
2023/03/10 09:30:23;;;;;;;7.30;2.72;;;;;;;;;;5027803;28;20021;-76
2023/03/10 09:32:49;;;;;;;2.00;0.47;;;;;;;;;;5019588;28;20080;-76
2023/03/10 09:35:15;;;;;;;3.95;1.58;;;;;;;;;;5029967;28;20112;-76
2023/03/10 09:37:41;;;;;;;2.55;0.63;;;;;;;;;;5020697;28;20117;-76
2023/03/10 09:40:09;;;;;;;1.52;0.40;;;;;;;;;;5027135;28;20025;-76
2023/03/10 09:42:45;;;;;;;4.45;0.80;;;;;;;;;;5029860;28;20884;-76
2023/03/10 09:45:21;;;;;;;7.43;1.63;;;;;;;;;;5028978;28;20029;-76
2023/03/10 09:47:56;;;;;;;5.38;1.25;;;;;;;;;;5028058;28;20040;-76
2023/03/10 09:50:22;;;;;;;3.05;0.88;;;;;;;;;;5018102;28;20037;-76
2023/03/10 09:52:55;;;;;;;1.88;0.57;;;;;;;;;;5021049;28;20089;-76
2023/03/10 09:55:23;;;;;;;7.78;2.85;;;;;;;;;;5026647;28;20790;-76
2023/03/10 09:57:50;;;;;;;4.88;1.02;;;;;;;;;;5028363;28;20043;-76
2023/03/10 10:00:20;;;;;;;4.80;0.30;;;;;;;;;;5025612;28;20033;-76
2023/03/10 10:02:48;;;;;;;5.63;1.33;;;;;;;;;;5022900;28;20071;-76
2023/03/10 10:05:20;;;;;;;3.97;1.08;;;;;;;;;;5030244;28;20045;-75
2023/03/10 10:07:49;;;;;;;3.10;0.75;;;;;;;;;;5019366;28;20152;-76
2023/03/10 10:10:17;;;;;;;6.13;2.30;;;;;;;;;;5022226;28;20033;-76
2023/03/10 10:12:44;;;;;;;14.90;7.85;;;;;;;;;;5031689;28;20108;-76
2023/03/10 10:15:15;;;;;;;9.90;3.80;;;;;;;;;;5026678;28;20045;-76
2023/03/10 10:18:00;;;;;;;3.92;1.30;;;;;;;;;;5026469;28;20041;-76
2023/03/10 10:20:33;;;;;;;6.68;2.13;;;;;;;;;;5026767;28;20037;-76
2023/03/10 10:22:58;;;;;;;6.95;2.65;;;;;;;;;;5024772;28;20063;-76
2023/03/10 10:25:25;;;;;;;3.63;1.35;;;;;;;;;;5030973;28;20029;-76
2023/03/10 10:27:52;;;;;;;3.50;1.58;;;;;;;;;;5029924;28;20038;-76
2023/03/10 10:30:27;;;;;;;7.68;3.72;;;;;;;;;;5032114;28;20036;-76
2023/03/10 10:33:04;;;;;;;8.98;2.33;;;;;;;;;;5029798;28;20057;-76
2023/03/10 10:35:31;;;;;;;6.65;2.38;;;;;;;;;;5039244;28;20021;-76
2023/03/10 10:37:59;;;;;;;5.25;1.92;;;;;;;;;;5026809;28;20049;-76
2023/03/10 10:40:26;;;;;;;9.85;4.68;;;;;;;;;;5032325;28;20083;-76
2023/03/10 10:42:53;;;;;;;7.50;3.17;;;;;;;;;;5030194;28;20065;-76
2023/03/10 10:45:29;;;;;;;7.40;2.40;;;;;;;;;;5037135;28;20039;-76
2023/03/10 10:47:55;;;;;;;5.80;1.55;;;;;;;;;;5029911;28;20108;-76
2023/03/10 10:50:21;;;;;;;5.63;1.73;;;;;;;;;;5035298;28;20064;-76
2023/03/10 10:52:49;;;;;;;4.88;2.58;;;;;;;;;;5030721;28;20034;-76
2023/03/10 10:55:29;;;;;;;9.55;4.78;;;;;;;;;;5030089;28;20052;-76
2023/03/10 10:58:00;;;;;;;7.78;3.53;;;;;;;;;;5025815;28;20035;-76
2023/03/10 11:00:29;;;;;;;5.10;2.33;;;;;;;;;;5032154;28;20033;-76
2023/03/10 11:02:55;;;;;;;8.82;3.33;;;;;;;;;;5025787;28;20045;-76
2023/03/10 11:05:23;;;;;;;7.40;2.40;;;;;;;;;;5034272;28;20029;-76
2023/03/10 11:07:49;;;;;;;3.13;1.20;;;;;;;;;;5034349;28;20033;-75
2023/03/10 11:10:17;;;;;;;3.85;0.95;;;;;;;;;;5029046;28;20035;-76
2023/03/10 11:12:45;;;;;;;5.22;1.20;;;;;;;;;;5031487;28;20029;-76
2023/03/10 11:15:30;;;;;;;2.28;0.80;;;;;;;;;;5030680;28;20033;-76
2023/03/10 11:17:59;;;;;;;3.60;1.00;;;;;;;;;;5028445;28;20421;-74
2023/03/10 11:20:45;;;;;;;2.45;0.90;;;;;;;;;;5029223;28;20171;-76
2023/03/10 11:23:29;;;;;;;1.90;0.40;;;;;;;;;;5031760;28;20548;-76
2023/03/10 11:25:55;;;;;;;6.45;0.90;;;;;;;;;;5030591;28;21035;-76
2023/03/10 11:28:27;;;;;;;6.82;1.48;;;;;;;;;;5028731;28;20037;-76
2023/03/10 11:30:56;;;;;;;3.33;0.80;;;;;;;;;;5027581;28;20048;-76
2023/03/10 11:33:41;;;;;;;2.92;0.40;;;;;;;;;;5033587;28;20033;-76
2023/03/10 11:36:17;;;;;;;1.48;0.40;;;;;;;;;;5028187;28;20053;-76
2023/03/10 11:38:45;;;;;;;2.25;0.40;;;;;;;;;;5024315;28;20048;-77
2023/03/10 11:41:16;;;;;;;2.10;0.60;;;;;;;;;;5031802;28;20429;-76
2023/03/10 11:43:52;;;;;;;2.45;0.80;;;;;;;;;;5027780;28;20041;-76
2023/03/10 11:46:28;;;;;;;5.35;1.73;;;;;;;;;;5032548;28;20462;-76
2023/03/10 11:49:08;;;;;;;3.22;1.00;;;;;;;;;;5029219;28;20116;-76
2023/03/10 11:51:38;;;;;;;3.33;1.10;;;;;;;;;;5033708;28;20021;-76
2023/03/10 11:54:25;;;;;;;2.45;0.85;;;;;;;;;;5031580;28;20049;-76
2023/03/10 11:56:51;;;;;;;1.27;0.32;;;;;;;;;;5022574;28;20779;-76
2023/03/10 11:59:17;;;;;;;5.82;1.42;;;;;;;;;;5023508;28;20033;-76
2023/03/10 12:01:46;;;;;;;3.90;1.55;;;;;;;;;;5027395;28;20029;-76
2023/03/10 12:04:15;;;;;;;5.00;1.10;;;;;;;;;;5024820;28;20041;-76
2023/03/10 12:06:45;;;;;;;4.00;1.23;;;;;;;;;;5021652;28;20026;-76
2023/03/10 12:09:16;;;;;;;5.75;1.95;;;;;;;;;;5031222;28;20505;-76
2023/03/10 12:11:42;;;;;;;7.05;1.58;;;;;;;;;;5029655;28;20025;-76
2023/03/10 12:14:11;;;;;;;2.95;0.52;;;;;;;;;;5030007;28;20037;-76
2023/03/10 12:16:38;;;;;;;3.08;0.80;;;;;;;;;;5034340;28;20025;-76
2023/03/10 12:19:05;;;;;;;7.72;2.72;;;;;;;;;;5028683;28;20052;-76
2023/03/10 12:21:31;;;;;;;11.32;4.65;;;;;;;;;;5035470;28;20165;-76
2023/03/10 12:24:00;;;;;;;7.28;2.15;;;;;;;;;;5029382;28;20045;-76
2023/03/10 12:26:38;;;;;;;10.23;1.83;;;;;;;;;;5029678;28;20108;-76
2023/03/10 12:29:19;;;;;;;5.93;1.35;;;;;;;;;;5032465;28;20103;-76
2023/03/10 12:31:46;;;;;;;5.97;1.88;;;;;;;;;;5027372;28;20025;-76
2023/03/10 12:34:14;;;;;;;6.20;1.10;;;;;;;;;;5029739;28;20118;-76
2023/03/10 12:36:42;;;;;;;5.95;1.85;;;;;;;;;;5027118;28;20119;-76
2023/03/10 12:39:27;;;;;;;7.38;1.42;;;;;;;;;;5027339;28;20072;-76
2023/03/10 12:41:53;;;;;;;6.18;1.92;;;;;;;;;;5033164;28;20036;-76
2023/03/10 12:44:19;;;;;;;10.38;2.50;;;;;;;;;;5028844;28;20033;-76
2023/03/10 12:46:50;;;;;;;11.70;5.90;;;;;;;;;;5021087;28;20025;-75
2023/03/10 12:49:21;;;;;;;14.55;6.78;;;;;;;;;;5027889;28;20112;-76
2023/03/10 12:51:50;;;;;;;8.68;2.67;;;;;;;;;;5025619;28;20062;-76
2023/03/10 12:54:33;;;;;;;11.00;4.03;;;;;;;;;;5031603;28;20033;-76
2023/03/10 12:57:07;;;;;;;9.70;2.83;;;;;;;;;;5035598;28;20045;-76
2023/03/10 12:59:36;;;;;;;9.82;2.50;;;;;;;;;;5024001;28;20052;-76
2023/03/10 13:02:03;;;;;;;11.10;3.13;;;;;;;;;;5030990;28;20087;-76
2023/03/10 13:04:29;;;;;;;11.23;2.67;;;;;;;;;;5034286;28;20029;-76
2023/03/10 13:07:02;;;;;;;9.38;2.50;;;;;;;;;;5028631;28;20098;-76
2023/03/10 13:09:31;;;;;;;12.98;4.00;;;;;;;;;;5029862;28;20108;-76
2023/03/10 13:12:00;;;;;;;9.55;1.77;;;;;;;;;;5035118;28;20048;-76
2023/03/10 13:14:52;;;;;;;12.25;1.77;;;;;;;;;;5026435;28;20026;-76
2023/03/10 13:17:23;;;;;;;10.25;3.92;;;;;;;;;;5024979;28;20363;-76
2023/03/10 13:20:00;;;;;;;8.60;2.78;;;;;;;;;;5026550;28;20034;-76
2023/03/10 13:22:26;;;;;;;12.13;2.10;;;;;;;;;;5028597;28;20074;-76
2023/03/10 13:24:57;;;;;;;8.75;1.80;;;;;;;;;;5028033;28;20065;-76
2023/03/10 13:27:27;;;;;;;7.72;1.63;;;;;;;;;;5032321;28;20129;-76
2023/03/10 13:29:58;;;;;;;10.13;1.48;;;;;;;;;;5023146;28;20120;-76
2023/03/10 13:32:24;;;;;;;7.25;1.00;;;;;;;;;;5023374;28;20490;-75
2023/03/10 13:34:50;;;;;;;6.22;1.25;;;;;;;;;;5025149;28;20034;-76
2023/03/10 13:37:16;;;;;;;5.60;1.40;;;;;;;;;;5027061;28;20115;-76
2023/03/10 13:39:42;;;;;;;3.75;0.73;;;;;;;;;;5017991;28;20521;-76
2023/03/10 13:42:18;;;;;;;2.30;0.40;;;;;;;;;;5025012;28;20034;-76
2023/03/10 13:44:46;;;;;;;1.58;0.30;;;;;;;;;;5023622;28;20034;-75
2023/03/10 13:47:16;;;;;;;1.10;0.50;;;;;;;;;;5024720;28;20067;-75
2023/03/10 13:49:47;;;;;;;1.10;0.60;;;;;;;;;;5027663;28;20025;-75
2023/03/10 13:52:13;;;;;;;16.45;9.07;;;;;;;;;;5027911;28;20092;-76
2023/03/10 13:54:41;;;;;;;16.38;9.48;;;;;;;;;;5036366;28;20065;-76
2023/03/10 13:57:33;;;;;;;6.18;1.77;;;;;;;;;;5025821;28;20056;-76
2023/03/10 13:59:59;;;;;;;6.47;2.83;;;;;;;;;;5033827;28;20076;-76
2023/03/10 14:02:34;;;;;;;10.85;6.00;;;;;;;;;;5029720;28;20072;-75
2023/03/10 14:05:01;;;;;;;11.73;5.32;;;;;;;;;;5033424;28;20061;-76
2023/03/10 14:07:28;;;;;;;10.55;4.60;;;;;;;;;;5027041;28;20029;-75
2023/03/10 14:10:03;;;;;;;5.10;1.85;;;;;;;;;;5040571;28;20033;-76
2023/03/10 14:12:49;;;;;;;7.30;3.55;;;;;;;;;;5027579;28;20029;-76
2023/03/10 14:15:27;;;;;;;6.32;1.25;;;;;;;;;;5020728;28;20040;-76
2023/03/10 14:17:53;;;;;;;6.65;2.30;;;;;;;;;;5031240;28;20033;-75
2023/03/10 14:20:24;;;;;;;6.75;1.38;;;;;;;;;;5027751;28;20033;-76
2023/03/10 14:22:50;;;;;;;11.30;3.38;;;;;;;;;;5030016;28;20053;-75
2023/03/10 14:25:18;;;;;;;6.20;2.63;;;;;;;;;;5030540;28;20044;-75
2023/03/10 14:27:45;;;;;;;6.97;0.95;;;;;;;;;;5029045;28;20120;-76
2023/03/10 14:30:17;;;;;;;6.35;1.83;;;;;;;;;;5030075;28;20709;-76
2023/03/10 14:32:43;;;;;;;5.80;1.02;;;;;;;;;;5025893;28;20099;-75
2023/03/10 14:35:11;;;;;;;6.55;2.15;;;;;;;;;;5029778;28;20719;-75
2023/03/10 14:37:37;;;;;;;7.57;1.02;;;;;;;;;;5030226;28;20071;-75
2023/03/10 14:40:04;;;;;;;8.25;1.25;;;;;;;;;;5030697;28;20033;-75
2023/03/10 14:42:31;;;;;;;6.35;1.23;;;;;;;;;;5025186;28;20444;-75
2023/03/10 14:45:01;;;;;;;2.85;0.82;;;;;;;;;;5029579;28;20072;-75